createdAt,value
2022-11-15T00:02:59.155Z,28.52
2022-11-15T00:05:48.420Z,26.02
2022-11-15T00:08:38.473Z,26.40
2022-11-15T00:11:27.314Z,28.63
2022-11-15T00:14:18.292Z,25.70
2022-11-15T00:17:06.791Z,28.95
2022-11-15T00:19:56.169Z,26.80
2022-11-15T00:22:45.370Z,29.83
2022-11-15T00:25:35.670Z,27.15
2022-11-15T00:28:24.840Z,25.27
2022-11-15T00:31:17.229Z,27.75
2022-11-15T00:34:06.197Z,25.35
2022-11-15T00:36:55.320Z,28.15
2022-11-15T00:39:44.446Z,27.05
2022-11-15T00:42:33.670Z,29.15
2022-11-15T00:45:22.733Z,29.08
2022-11-15T00:48:13.868Z,30.58
2022-11-15T00:51:02.757Z,33.50
2022-11-15T00:53:52.451Z,31.60
2022-11-15T00:56:41.539Z,35.47
2022-11-15T00:59:31.171Z,31.38
2022-11-15T01:02:20.037Z,31.75
2022-11-15T01:05:12.151Z,31.90
2022-11-15T01:08:01.698Z,31.02
2022-11-15T01:10:51.720Z,34.65
2022-11-15T01:13:41.410Z,31.95
2022-11-15T01:16:31.079Z,32.05
2022-11-15T01:19:20.241Z,33.65
2022-11-15T01:22:11.230Z,34.53
2022-11-15T01:25:00.439Z,31.05
2022-11-15T01:27:50.050Z,30.25
2022-11-15T01:30:39.860Z,32.63
2022-11-15T01:33:29.654Z,33.03
2022-11-15T01:36:23.152Z,32.72
2022-11-15T01:39:14.787Z,31.83
2022-11-15T01:42:04.180Z,34.22
2022-11-15T01:44:57.191Z,31.55
2022-11-15T01:47:52.407Z,33.80
2022-11-15T01:50:42.080Z,31.17
2022-11-15T01:53:34.995Z,34.38
2022-11-15T01:56:28.990Z,31.23
2022-11-15T01:59:18.803Z,31.33
2022-11-15T02:02:08.238Z,30.90
2022-11-15T02:04:57.447Z,30.85
2022-11-15T02:07:47.677Z,34.25
2022-11-15T02:10:37.079Z,32.50
2022-11-15T02:13:29.529Z,36.67
2022-11-15T02:16:29.208Z,37.13
2022-11-15T02:19:35.316Z,34.30
2022-11-15T02:22:39.000Z,40.20
2022-11-15T02:25:42.023Z,35.40
2022-11-15T02:28:51.890Z,37.72
2022-11-15T02:31:52.698Z,35.72
2022-11-15T02:34:54.420Z,34.97
2022-11-15T02:37:48.180Z,34.22
2022-11-15T02:40:47.969Z,35.75
2022-11-15T02:44:01.207Z,32.08
2022-11-15T02:47:11.631Z,32.60
2022-11-15T02:50:04.991Z,34.25
2022-11-15T02:52:54.110Z,37.92
2022-11-15T02:55:49.707Z,35.58
2022-11-15T02:59:17.047Z,31.88
2022-11-15T03:02:19.889Z,34.20
2022-11-15T03:05:18.349Z,33.47
2022-11-15T03:08:13.279Z,35.13
2022-11-15T03:11:10.956Z,33.05
2022-11-15T03:14:04.950Z,32.65
2022-11-15T03:17:01.578Z,34.42
2022-11-15T03:19:56.618Z,36.08
2022-11-15T03:22:48.738Z,36.13
2022-11-15T03:25:41.468Z,33.78
2022-11-15T03:31:50.437Z,32.40
2022-11-15T03:34:44.019Z,33.80
2022-11-15T03:37:40.470Z,30.75
2022-11-15T03:40:33.950Z,30.98
2022-11-15T03:43:33.908Z,34.03
2022-11-15T03:46:27.600Z,31.70
2022-11-15T03:49:22.831Z,29.90
2022-11-15T03:52:12.870Z,30.08
2022-11-15T03:55:06.799Z,31.50
2022-11-15T03:57:59.433Z,32.92
2022-11-15T04:00:49.409Z,32.40
2022-11-15T04:03:38.523Z,29.45
2022-11-15T04:06:28.249Z,30.23
2022-11-15T04:09:17.668Z,29.20
2022-11-15T04:12:09.060Z,30.20
2022-11-15T04:15:09.637Z,27.23
2022-11-15T04:18:00.828Z,29.13
2022-11-15T04:21:03.380Z,30.77
2022-11-15T04:24:10.140Z,32.55
2022-11-15T04:26:59.352Z,27.38
2022-11-15T04:29:50.940Z,28.23
2022-11-15T04:32:42.540Z,28.30
2022-11-15T04:35:32.798Z,29.83
2022-11-15T04:38:21.052Z,30.77
2022-11-15T04:41:10.089Z,33.45
2022-11-15T04:43:59.199Z,30.40
2022-11-15T04:46:50.322Z,27.92
2022-11-15T04:49:39.343Z,31.92
2022-11-15T04:52:28.689Z,28.42
2022-11-15T04:55:18.327Z,27.88
2022-11-15T04:58:08.219Z,26.08
2022-11-15T05:00:57.382Z,28.48
2022-11-15T05:04:06.169Z,25.98
2022-11-15T05:06:55.498Z,28.13
2022-11-15T05:09:45.260Z,27.85
2022-11-15T05:12:34.400Z,28.45
2022-11-15T05:15:24.659Z,26.63
2022-11-15T05:18:18.224Z,31.88
2022-11-15T05:21:14.023Z,30.08
2022-11-15T05:24:03.059Z,26.08
2022-11-15T05:26:52.641Z,27.88
2022-11-15T05:29:41.359Z,26.92
2022-11-15T05:32:31.769Z,26.63
2022-11-15T05:35:27.657Z,22.48
2022-11-15T05:38:19.398Z,22.70
2022-11-15T05:41:09.329Z,22.17
2022-11-15T05:44:00.498Z,23.40
2022-11-15T05:46:55.220Z,23.77
2022-11-15T05:49:47.438Z,23.75
2022-11-15T05:52:40.740Z,26.13
2022-11-15T05:55:32.178Z,21.55
2022-11-15T05:58:22.699Z,22.98
2022-11-15T06:01:12.777Z,24.80
2022-11-15T06:04:01.808Z,22.85
2022-11-15T06:06:51.204Z,22.83
2022-11-15T06:09:39.838Z,19.77
2022-11-15T06:12:30.659Z,20.17
2022-11-15T06:15:19.570Z,20.75
2022-11-15T06:18:16.140Z,20.05
2022-11-15T06:21:11.559Z,18.33
2022-11-15T06:24:01.059Z,19.38
2022-11-15T06:26:50.459Z,17.55
2022-11-15T06:29:42.818Z,20.00
2022-11-15T06:32:33.900Z,18.48
2022-11-15T06:35:23.500Z,19.70
2022-11-15T06:38:13.950Z,19.20
2022-11-15T06:41:06.007Z,20.67
2022-11-15T06:46:45.660Z,19.73
2022-11-15T06:49:37.742Z,18.55
2022-11-15T06:52:27.937Z,18.10
2022-11-15T06:55:18.583Z,19.95
2022-11-15T07:01:02.880Z,18.02
2022-11-15T07:03:54.281Z,19.58
2022-11-15T07:06:43.944Z,18.60
2022-11-15T07:09:34.142Z,17.25
2022-11-15T07:12:24.622Z,20.25
2022-11-15T07:15:15.410Z,17.50
2022-11-15T07:18:04.850Z,19.33
2022-11-15T07:20:55.892Z,18.88
2022-11-15T07:23:45.141Z,18.55
2022-11-15T07:26:36.367Z,18.87
2022-11-15T07:29:28.561Z,18.15
2022-11-15T07:32:18.781Z,18.92
2022-11-15T07:35:08.261Z,18.58
2022-11-15T07:38:00.408Z,21.17
2022-11-15T07:40:50.038Z,20.73
2022-11-15T07:43:40.191Z,19.25
2022-11-15T07:46:29.044Z,18.60
2022-11-15T07:49:18.506Z,18.55
2022-11-15T07:52:08.275Z,17.90
2022-11-15T07:54:59.484Z,18.33
2022-11-15T07:57:49.036Z,18.30
2022-11-15T08:00:40.017Z,18.40
2022-11-15T08:03:28.627Z,19.38
2022-11-15T08:06:19.023Z,18.20
2022-11-15T08:09:08.304Z,19.33
2022-11-15T08:12:00.112Z,18.60
2022-11-15T08:14:49.229Z,18.47
2022-11-15T08:17:38.899Z,17.73
2022-11-15T08:20:31.114Z,19.75
2022-11-15T08:23:21.336Z,19.45
2022-11-15T08:26:11.836Z,17.67
2022-11-15T08:29:03.126Z,18.42
2022-11-15T08:31:52.095Z,19.75
2022-11-15T08:34:44.345Z,16.90
2022-11-15T08:37:33.043Z,18.48
2022-11-15T08:40:24.306Z,17.30
2022-11-15T08:43:14.257Z,18.63
2022-11-15T08:46:05.798Z,19.05
2022-11-15T08:48:54.663Z,18.20
2022-11-15T08:51:45.142Z,18.17
2022-11-15T08:54:34.543Z,17.17
2022-11-15T08:57:23.896Z,19.20
2022-11-15T09:00:14.692Z,19.13
2022-11-15T09:03:08.162Z,18.10
2022-11-15T09:05:59.158Z,16.98
2022-11-15T09:08:50.012Z,18.13
2022-11-15T09:11:38.973Z,19.25
2022-11-15T09:14:29.831Z,18.33
2022-11-15T09:17:24.393Z,20.17
2022-11-15T09:20:17.202Z,20.05
2022-11-15T09:23:07.451Z,19.88
2022-11-15T09:26:03.232Z,17.25
2022-11-15T09:28:52.154Z,17.85
2022-11-15T09:31:41.994Z,20.02
2022-11-15T09:34:30.925Z,18.58
2022-11-15T09:37:25.202Z,17.30
2022-11-15T09:40:20.532Z,17.50
2022-11-15T09:43:29.752Z,19.17
2022-11-15T09:46:27.923Z,17.95
2022-11-15T09:49:23.941Z,17.38
2022-11-15T09:52:13.212Z,16.85
2022-11-15T09:54:54.293Z,15.43
2022-11-15T09:57:33.255Z,16.90
2022-11-15T10:03:13.989Z,17.05
2022-11-15T10:05:47.223Z,16.25
2022-11-15T10:08:39.552Z,17.35
2022-11-15T10:14:15.806Z,18.10
2022-11-15T10:17:16.721Z,15.70
2022-11-15T10:20:05.365Z,16.95
2022-11-15T10:22:43.249Z,18.95
2022-11-15T10:25:21.081Z,19.38
2022-11-15T10:27:59.595Z,17.60
2022-11-15T10:30:36.660Z,19.75
2022-11-15T10:33:34.994Z,18.73
2022-11-15T10:36:22.602Z,22.33
2022-11-15T10:38:59.373Z,21.17
2022-11-15T10:41:40.113Z,21.55
2022-11-15T10:44:25.897Z,19.13
2022-11-15T10:47:25.642Z,16.80
2022-11-15T10:50:02.889Z,19.52
2022-11-15T10:52:35.900Z,18.52
2022-11-15T10:55:23.141Z,19.35
2022-11-15T10:57:56.396Z,19.48
2022-11-15T11:00:36.241Z,18.08
2022-11-15T11:03:08.962Z,19.45
2022-11-15T11:05:43.203Z,19.35
2022-11-15T11:08:26.692Z,18.45
2022-11-15T11:11:02.474Z,19.88
2022-11-15T11:13:35.304Z,23.83
2022-11-15T11:16:44.492Z,25.48
2022-11-15T11:19:49.299Z,20.42
2022-11-15T11:22:30.660Z,22.27
2022-11-15T11:25:15.564Z,22.60
2022-11-15T11:27:53.256Z,21.95
2022-11-15T11:30:32.642Z,21.50
2022-11-15T11:33:16.733Z,23.70
2022-11-15T11:36:01.844Z,20.65
2022-11-15T11:38:55.980Z,23.02
2022-11-15T11:41:50.475Z,20.73
2022-11-15T11:44:32.355Z,18.83
2022-11-15T11:47:06.714Z,19.85
2022-11-15T11:49:47.791Z,19.58
2022-11-15T11:52:25.051Z,20.15
2022-11-15T11:55:06.803Z,23.80
2022-11-15T12:00:22.955Z,22.80
2022-11-15T12:03:07.070Z,23.08
2022-11-15T12:05:45.790Z,23.50
2022-11-15T12:08:35.704Z,21.48
2022-11-15T12:11:17.979Z,24.10
2022-11-15T12:16:29.144Z,22.98
2022-11-15T12:19:06.280Z,25.05
2022-11-15T12:21:46.800Z,23.58
2022-11-15T12:24:22.958Z,24.58
2022-11-15T12:27:01.081Z,26.00
2022-11-15T12:29:36.852Z,25.60
2022-11-15T12:32:20.131Z,25.77
2022-11-15T12:34:53.289Z,22.52
2022-11-15T12:37:51.420Z,23.83
2022-11-15T12:40:25.480Z,23.45
2022-11-15T12:43:08.501Z,25.40
2022-11-15T12:45:40.419Z,25.02
2022-11-15T12:48:59.244Z,24.50
2022-11-15T12:52:07.311Z,26.30
2022-11-15T12:55:29.761Z,27.38
2022-11-15T12:58:42.242Z,25.15
2022-11-15T13:01:34.431Z,24.02
2022-11-15T13:06:46.280Z,25.52
2022-11-15T13:09:56.157Z,25.88
2022-11-15T13:13:00.713Z,24.98
2022-11-15T13:15:58.541Z,30.05
2022-11-15T13:18:44.441Z,22.90
2022-11-15T13:21:43.633Z,25.02
2022-11-15T13:24:18.743Z,23.02
2022-11-15T13:27:07.811Z,23.98
2022-11-15T13:29:41.422Z,24.70
2022-11-15T13:32:21.767Z,24.70
2022-11-15T13:34:55.238Z,22.17
2022-11-15T13:37:35.689Z,25.17
2022-11-15T13:40:38.263Z,26.42
2022-11-15T13:43:38.004Z,25.00
2022-11-15T13:46:26.661Z,22.50
2022-11-15T13:49:55.519Z,23.15
2022-11-15T13:53:06.844Z,22.90
2022-11-15T13:55:44.931Z,22.80
2022-11-15T13:58:24.032Z,22.27
2022-11-15T14:01:06.229Z,24.55
2022-11-15T14:03:52.791Z,24.15
2022-11-15T14:06:27.142Z,21.30
2022-11-15T14:09:42.879Z,20.33
2022-11-15T14:12:37.994Z,19.60
2022-11-15T14:15:39.916Z,22.75
2022-11-15T14:18:44.403Z,23.25
2022-11-15T14:21:25.911Z,21.42
2022-11-15T14:24:17.901Z,23.00
2022-11-15T14:27:02.115Z,21.48
2022-11-15T14:29:39.669Z,21.70
2022-11-15T14:32:21.803Z,20.43
2022-11-15T14:35:02.237Z,20.85
2022-11-15T14:37:52.093Z,22.52
2022-11-15T14:40:44.552Z,21.20
2022-11-15T14:43:20.941Z,21.27
2022-11-15T14:46:06.687Z,21.05
2022-11-15T14:48:47.147Z,20.88
2022-11-15T14:51:39.593Z,17.58
2022-11-15T14:54:31.308Z,18.75
2022-11-15T14:57:12.057Z,21.02
2022-11-15T14:59:59.160Z,25.67
2022-11-15T15:03:09.983Z,19.50
2022-11-15T15:08:41.059Z,18.40
2022-11-15T15:11:20.631Z,17.50
2022-11-15T15:13:57.288Z,20.13
2022-11-15T15:16:50.721Z,16.92
2022-11-15T15:19:32.300Z,18.13
2022-11-15T15:22:09.134Z,20.05
2022-11-15T15:24:48.408Z,21.33
2022-11-15T15:27:26.248Z,17.63
2022-11-15T15:30:16.203Z,19.88
2022-11-15T15:32:57.282Z,20.80
2022-11-15T15:35:39.492Z,23.20
2022-11-15T15:38:23.474Z,20.52
2022-11-15T15:41:29.544Z,19.27
2022-11-15T15:44:11.618Z,20.15
2022-11-15T15:46:48.319Z,22.13
2022-11-15T15:49:40.190Z,23.75
2022-11-15T15:52:20.111Z,21.90
2022-11-15T15:55:18.809Z,18.83
2022-11-15T15:57:56.504Z,20.38
2022-11-15T16:00:39.968Z,21.95
2022-11-15T16:03:16.183Z,21.15
2022-11-15T16:05:57.301Z,21.05
2022-11-15T16:08:47.682Z,19.60
2022-11-15T16:11:38.829Z,19.15
2022-11-15T16:14:25.990Z,19.95
2022-11-15T16:17:20.382Z,17.67
2022-11-15T16:20:34.141Z,19.33
2022-11-15T16:23:15.878Z,18.55
2022-11-15T16:25:57.572Z,19.48
2022-11-15T16:28:40.631Z,21.75
2022-11-15T16:31:22.364Z,20.92
2022-11-15T16:36:58.469Z,22.05
2022-11-15T16:39:32.090Z,20.48
2022-11-15T16:42:04.423Z,19.88
2022-11-15T16:44:37.734Z,24.15
2022-11-15T16:47:16.149Z,27.80
2022-11-15T16:49:51.653Z,24.98
2022-11-15T16:52:25.757Z,24.75
2022-11-15T16:54:56.824Z,23.45
2022-11-15T16:57:28.344Z,24.95
2022-11-15T17:00:00.051Z,23.98
2022-11-15T17:02:31.004Z,23.08
2022-11-15T17:05:15.953Z,23.20
2022-11-15T17:07:54.543Z,22.13
2022-11-15T17:10:27.099Z,22.52
2022-11-15T17:12:58.596Z,23.27
2022-11-15T17:15:29.761Z,23.90
2022-11-15T17:18:00.973Z,25.43
2022-11-15T17:20:35.199Z,27.80
2022-11-15T17:23:13.737Z,27.85
2022-11-15T17:25:49.542Z,27.55
2022-11-15T17:28:23.952Z,34.97
2022-11-15T17:30:57.634Z,28.20
2022-11-15T17:33:34.347Z,31.48
2022-11-15T17:36:09.417Z,32.95
2022-11-15T17:38:46.203Z,34.17
2022-11-15T17:41:18.612Z,30.85
2022-11-15T17:43:51.946Z,31.98
2022-11-15T17:46:25.007Z,26.55
2022-11-15T17:48:59.343Z,25.02
2022-11-15T17:51:33.657Z,24.55
2022-11-15T17:54:15.860Z,25.17
2022-11-15T17:56:46.516Z,25.33
2022-11-15T17:59:21.118Z,25.27
2022-11-15T18:01:54.298Z,25.75
2022-11-15T18:04:28.526Z,26.10
2022-11-15T18:07:00.467Z,23.17
2022-11-15T18:12:03.837Z,24.23
2022-11-15T18:14:34.577Z,24.70
2022-11-15T18:17:05.233Z,26.98
2022-11-15T18:19:36.806Z,26.20
2022-11-15T18:22:10.153Z,23.17
2022-11-15T18:24:43.236Z,24.45
2022-11-15T18:27:14.349Z,29.13
2022-11-15T18:29:45.530Z,29.90
2022-11-15T18:32:18.079Z,31.20
2022-11-15T18:34:49.648Z,30.15
2022-11-15T18:37:20.676Z,29.75
2022-11-15T18:39:54.094Z,30.88
2022-11-15T18:42:31.148Z,29.90
2022-11-15T18:45:03.026Z,31.08
2022-11-15T18:47:34.386Z,30.65
2022-11-15T18:50:08.600Z,32.83
2022-11-15T18:52:44.598Z,35.55
2022-11-15T18:55:17.518Z,35.78
2022-11-15T18:57:55.913Z,33.30
2022-11-15T19:00:29.511Z,31.45
2022-11-15T19:03:03.633Z,31.42
2022-11-15T19:05:37.876Z,29.63
2022-11-15T19:08:09.649Z,30.65
2022-11-15T19:16:06.628Z,27.77
2022-11-15T19:18:42.276Z,27.13
2022-11-15T19:21:17.603Z,31.80
2022-11-15T19:23:53.828Z,29.55
2022-11-15T19:26:30.640Z,30.73
2022-11-15T19:29:31.525Z,33.92
2022-11-15T19:32:04.239Z,29.83
2022-11-15T19:37:06.657Z,28.08
2022-11-15T19:39:41.416Z,30.80
2022-11-15T19:42:16.659Z,31.63
2022-11-15T19:44:48.311Z,29.73
2022-11-15T19:47:19.517Z,30.02
2022-11-15T19:49:52.393Z,27.10
2022-11-15T19:52:25.009Z,27.98
2022-11-15T19:55:00.367Z,28.33
2022-11-15T19:57:34.620Z,30.02
2022-11-15T20:00:09.776Z,29.80
2022-11-15T20:02:40.747Z,29.20
2022-11-15T20:05:17.151Z,27.73
2022-11-15T20:07:52.060Z,28.52
2022-11-15T20:10:26.572Z,25.98
2022-11-15T20:13:02.663Z,27.98
2022-11-15T20:15:35.161Z,27.45
2022-11-15T20:18:05.461Z,27.48
2022-11-15T20:20:38.043Z,26.47
2022-11-15T20:23:13.027Z,30.08
2022-11-15T20:25:49.251Z,27.13
2022-11-15T20:28:24.583Z,27.08
2022-11-15T20:30:57.272Z,26.95
2022-11-15T20:33:33.537Z,27.73
2022-11-15T20:36:13.384Z,26.67
2022-11-15T20:38:44.752Z,26.17
2022-11-15T20:41:19.233Z,24.27
2022-11-15T20:43:51.971Z,28.15
2022-11-15T20:46:23.123Z,23.30
2022-11-15T20:48:53.803Z,24.40
2022-11-15T20:51:24.481Z,25.93
2022-11-15T20:53:54.611Z,25.35
2022-11-15T20:56:25.677Z,22.17
2022-11-15T20:58:57.331Z,29.33
2022-11-15T21:01:27.990Z,27.40
2022-11-15T21:03:58.771Z,32.80
2022-11-15T21:06:31.299Z,32.63
2022-11-15T21:09:20.890Z,30.80
2022-11-15T21:12:09.293Z,32.30
2022-11-15T21:14:43.303Z,33.67
2022-11-15T21:17:13.924Z,30.92
2022-11-15T21:19:44.414Z,28.02
2022-11-15T21:22:16.661Z,28.52
2022-11-15T21:24:47.109Z,28.95
2022-11-15T21:27:20.002Z,25.67
2022-11-15T21:29:52.719Z,25.05
2022-11-15T21:32:23.443Z,25.38
2022-11-15T21:34:54.623Z,23.92
2022-11-15T21:37:25.360Z,23.10
2022-11-15T21:39:56.070Z,23.80
2022-11-15T21:42:26.611Z,27.65
2022-11-15T21:44:58.241Z,26.75
2022-11-15T21:47:28.780Z,25.42
2022-11-15T21:49:58.941Z,23.95
2022-11-15T21:52:29.692Z,25.33
2022-11-15T21:54:59.801Z,27.80
2022-11-15T21:57:30.540Z,28.47
2022-11-15T22:00:20.977Z,28.58
2022-11-15T22:02:51.461Z,25.52
2022-11-15T22:05:21.599Z,27.60
2022-11-15T22:07:52.379Z,25.48
2022-11-15T22:10:22.595Z,25.73
2022-11-15T22:12:53.350Z,25.07
2022-11-15T22:15:25.079Z,25.73
2022-11-15T22:18:01.939Z,25.98
2022-11-15T22:20:47.483Z,24.95
2022-11-15T22:23:18.292Z,25.60
2022-11-15T22:25:48.703Z,25.15
2022-11-15T22:28:19.919Z,27.27
2022-11-15T22:30:53.509Z,27.05
2022-11-15T22:33:27.209Z,25.55
2022-11-15T22:35:57.914Z,27.17
2022-11-15T22:38:29.630Z,27.23
2022-11-15T22:41:00.549Z,24.83
2022-11-15T22:43:31.478Z,25.90
2022-11-15T22:46:04.500Z,25.58
2022-11-15T22:48:37.072Z,24.90
2022-11-15T22:51:08.570Z,28.00
2022-11-15T22:53:39.501Z,25.70
2022-11-15T22:56:14.076Z,27.42
2022-11-15T22:58:47.203Z,27.05
2022-11-15T23:01:23.042Z,26.70
2022-11-15T23:03:54.058Z,27.00
2022-11-15T23:06:24.896Z,27.83
2022-11-15T23:08:56.761Z,29.88
2022-11-15T23:11:44.184Z,29.38
2022-11-15T23:14:14.980Z,26.23
2022-11-15T23:16:46.956Z,24.55
2022-11-15T23:19:18.272Z,24.27
2022-11-15T23:22:06.610Z,24.67
2022-11-15T23:24:37.600Z,24.23
2022-11-15T23:27:09.939Z,22.07
2022-11-15T23:29:55.143Z,22.30
2022-11-15T23:32:44.135Z,26.73
2022-11-15T23:35:15.012Z,23.73
2022-11-15T23:37:45.700Z,22.93
2022-11-15T23:40:17.157Z,23.10
2022-11-15T23:42:47.581Z,25.05
2022-11-15T23:45:18.642Z,22.02
2022-11-15T23:47:50.632Z,21.37
2022-11-15T23:50:21.434Z,24.33
2022-11-15T23:52:51.777Z,24.13
2022-11-15T23:55:22.795Z,23.05
2022-11-15T23:57:53.435Z,24.15
